Aérodrome :
LOGIN :

S'inscrire | Disclaimer

   EN    FR    IT 

 










Légende :    VFR   VFR Marginal   IFR   IFR Intensif   IFR Très Intensif
Visi : 
Plafond : 
>= 8 km
>= 3000ft
5 à 8 km
1000 à 3000 ft
1500m à 5 km
500 à 1000 ft
800 à 1500m
200 à 500 ft
< 800m
< 200 ft
Symboles :   Orages  Brouillard  Fortes neiges  Fortes précipitations  Vent > 20 kt
SIGMETs :   Divers  Orages  Givrage  Turbulence  Onde Orograph.  Cendres Volcan.







- Altitude de l'aérodrome : 302 ft
- Code IATA : MAH


LEMH - Menorca

DERNIER METAR :
  • 192000Z 02007KT 9999 FEW030 SCT048 16/11 Q1022

METARs EXPIRÉS :
  • 191930Z 02006KT 9999 SCT048 16/11 Q1022
  • 191900Z 03007KT 9999 FEW048 17/11 Q1021
  • 191830Z 03007KT 9999 FEW035 17/11 Q1021
  • 191800Z 03006KT 9999 FEW035 17/11 Q1021
  • 191730Z 04010KT 9999 FEW035 19/11 Q1021

TAF TAF LEMH
Valide du 19 à 15h jusqu'au 20 à 15h UTC


191400Z 1915/2015 01009KT 9999 SCT020 TX24/2012Z TN16/2006Z
TEMPO 1918/2015 31004KT
PROB40
TEMPO 1915/2015 SCT030TCU
Pas de NOTAMs connus pour ce terrain.



MET'MAP, la Météo Aéronautique d'un coup d'oeil ! - Copyright ORBIFLY Décembre 2007 - Disclaimer

ORBIFLY MET'MAP TEAM :

Programmation & Développement : Alexandra Zaïnal
Conception & Développement : Baudouin d'Aumeries
Co-Programmation & Développement : Marc-Olivier Méhu
Soutien technique & logistique : Manuel Goepfert

Contact : metmap@orbifly.com




SOURCES & CREDITS :

   NOAA